Date,TemperatureHighF,TemperatureAvgF,TemperatureLowF,DewpointHighF,DewpointAvgF,DewpointLowF,HumidityHigh,HumidityAvg,HumidityLow,PressureMaxIn,PressureMinIn,WindSpeedMaxMPH,WindSpeedAvgMPH,GustSpeedMaxMPH,PrecipitationSumIn
2013-1-2,79,75,71,70,68,67,90,80,70,30.08,30.00,4,1,11,0.00
2013-1-3,80,75,69,71,69,67,94,83,71,30.13,30.03,5,1,12,0.00
2013-1-4,79,74,67,73,70,66,96,88,76,30.23,30.11,2,0,9,0.00
2013-1-5,75,71,67,71,69,66,98,94,84,30.26,30.16,1,0,6,0.37
2013-1-6,81,75,66,74,71,65,98,86,76,30.20,30.07,4,1,12,0.01
2013-1-7,76,73,69,72,70,67,96,91,85,30.17,30.08,4,0,8,0.14
2013-1-8,74,74,73,72,71,70,94,90,87,30.12,30.10,4,2,11,0.14
2013-1-9,82,78,76,73,72,70,87,81,75,30.29,30.18,4,2,14,0.04
2013-1-10,77,76,76,71,70,70,84,83,82,30.28,30.27,3,3,11,0.00
2013-1-20,74,69,65,69,66,64,99,91,81,30.10,30.05,1,0,8,0.43
2013-1-21,70,68,67,68,67,66,97,96,92,30.06,30.02,1,0,6,0.25
2013-1-22,69,69,68,56,55,54,63,62,59,30.24,30.18,3,1,10,0.01
2013-1-23,74,68,61,60,56,53,83,67,53,30.30,30.20,4,1,18,0.01
2013-1-24,61,60,60,56,55,55,85,85,84,30.27,30.25,0,0,1,0.00
2013-1-25,76,70,62,62,59,53,82,69,55,30.27,30.18,1,0,7,0.00
2013-1-26,67,65,64,60,60,59,85,82,79,30.21,30.20,0,0,1,0.00
2013-1-28,80,77,74,68,67,65,79,71,64,30.32,30.23,4,2,10,0.00
2013-1-29,79,76,73,72,69,66,86,80,74,30.23,30.14,5,2,12,0.04
2013-1-30,76,73,72,70,68,66,90,84,77,30.14,29.98,6,2,14,0.00
2013-1-31,73,65,58,70,55,41,94,71,51,30.19,29.99,4,0,11,0.00
2013-2-1,73,62,53,57,50,40,77,64,54,30.27,30.16,3,0,11,0.00
2013-2-2,74,64,55,55,50,38,77,61,47,30.27,30.13,3,0,9,0.00
2013-2-3,75,64,56,54,52,42,88,68,33,30.17,30.08,2,0,7,0.00
2013-2-4,74,63,50,56,49,41,82,62,37,30.15,30.03,3,0,9,0.00
2013-2-5,77,66,56,65,59,53,91,80,62,30.07,30.01,2,0,10,0.00
2013-2-6,78,71,62,68,64,61,96,80,64,30.11,30.03,2,0,10,0.00
2013-2-7,79,74,70,70,66,64,81,75,69,30.09,29.94,3,1,10,0.00
2013-2-8,83,76,70,71,67,61,92,75,55,30.03,29.91,7,2,13,0.00
2013-2-9,79,73,68,68,64,61,92,75,64,30.18,30.03,6,2,14,0.00
2013-2-10,74,71,70,65,63,61,81,74,70,30.27,30.16,6,2,16,0.00
2013-2-11,74,73,71,67,65,62,81,77,72,30.20,30.11,3,1,12,0.00
2013-2-12,75,74,72,71,69,66,90,85,78,30.13,29.98,4,1,14,0.00
2013-2-13,81,76,70,75,71,68,96,86,77,30.02,29.90,7,2,21,0.00
2013-2-14,77,70,63,72,68,62,97,93,83,30.01,29.86,7,0,18,1.82
2013-2-15,66,65,63,65,64,62,98,97,96,30.00,29.96,1,0,7,1.85
2013-2-16,73,68,63,64,60,50,97,78,49,29.95,29.89,9,3,23,0.04
2013-2-17,53,53,53,43,42,40,69,66,62,30.09,30.09,2,1,9,0.01
2013-2-18,67,67,66,57,56,53,71,67,61,30.24,30.23,4,2,10,0.00
2013-2-26,82,79,77,75,73,71,86,81,75,29.90,29.87,7,4,21,0.00
2013-2-27,77,70,63,74,66,62,97,87,65,29.97,29.87,6,1,11,0.84
2013-2-28,70,64,59,64,54,46,97,71,43,30.01,29.91,4,0,9,0.39
2013-3-1,63,63,63,57,57,56,81,79,77,29.94,29.92,0,0,2,0.00
2013-3-5,74,64,51,59,54,44,83,70,55,30.19,30.09,5,1,12,0.00
2013-3-6,77,65,54,59,46,35,90,55,28,30.10,29.95,11,3,22,0.00
2013-3-7,70,63,51,56,50,39,88,64,41,30.19,30.10,3,0,9,0.00
2013-3-8,73,66,56,55,53,48,89,64,44,30.21,30.11,2,0,9,0.00
2013-3-9,75,66,56,59,54,49,86,68,53,30.19,30.11,2,0,11,0.00
2013-3-10,70,69,67,62,57,54,75,68,60,30.18,30.09,4,2,13,0.00
2013-3-11,78,73,69,64,62,60,77,68,57,30.12,29.97,5,2,15,0.00
2013-3-12,78,74,72,70,66,64,81,76,71,30.00,29.91,6,2,14,0.00
2013-3-13,72,67,61,56,53,46,76,62,43,30.12,30.05,1,0,6,0.00
2013-3-14,61,58,57,53,50,49,78,75,71,30.20,30.12,0,0,4,0.00
2013-3-15,73,62,53,57,52,45,80,68,53,30.25,30.16,2,0,8,0.00
2013-3-16,75,70,59,57,55,53,83,61,49,30.20,30.10,3,1,11,0.00
2013-3-17,76,72,62,62,60,55,80,66,59,30.16,30.04,4,1,12,0.00
2013-3-21,63,61,60,53,52,51,76,72,68,29.99,29.93,0,0,0,0.00
2013-3-22,77,68,56,71,60,52,91,76,60,30.02,29.91,3,1,11,0.02
2013-3-23,83,77,72,76,73,70,96,88,76,30.00,29.81,7,2,18,0.02
2013-3-24,88,81,73,75,72,67,95,75,56,29.91,29.69,15,7,30,0.00
2013-3-25,81,74,66,73,57,36,95,60,31,29.99,29.75,8,2,14,0.03
2013-3-26,70,63,54,44,37,31,46,38,26,30.21,29.98,9,2,20,0.00
2013-3-27,67,57,46,49,42,32,72,58,42,30.26,30.17,2,0,10,0.00
2013-3-28,71,65,54,53,46,34,76,52,30,30.27,30.18,2,0,10,0.00
2013-3-29,72,65,58,55,51,45,65,60,50,30.29,30.22,2,0,10,0.00
2013-3-30,75,70,65,57,54,51,66,57,43,30.27,30.17,3,0,11,0.00
2013-3-31,80,73,68,68,62,-100,81,70,60,30.20,30.06,5,2,16,0.00
2013-4-1,87,79,72,73,67,62,88,69,43,30.06,29.95,9,4,21,0.20
2013-4-2,75,75,75,69,68,68,82,80,79,30.08,30.07,2,1,9,0.00
2013-4-3,76,75,73,71,69,68,85,83,81,30.07,30.02,2,0,10,0.00
2013-4-4,75,74,72,71,71,70,95,91,86,30.06,29.93,2,0,8,0.88
2013-4-5,74,69,66,72,67,64,96,92,86,29.98,29.83,7,3,16,1.45
2013-4-6,77,72,64,67,64,61,95,78,65,30.09,29.92,4,0,12,0.01
2013-4-7,73,72,72,65,64,64,76,76,75,30.09,30.06,5,3,13,0.01
2013-4-11,83,78,76,75,73,71,87,83,75,30.03,29.92,6,2,15,0.00
2013-4-12,86,81,78,78,76,74,91,85,77,29.95,29.88,8,4,23,0.00
2013-4-13,78,75,72,75,72,70,95,93,91,29.97,29.94,1,0,5,0.85
2013-4-14,85,79,72,78,75,70,97,88,75,29.98,29.91,4,1,14,0.23
2013-4-15,86,79,71,78,74,69,97,86,69,30.06,29.94,5,1,13,0.90
2013-4-16,79,73,72,78,73,71,99,98,96,30.10,30.03,1,0,5,0.91
2013-4-17,77,77,77,72,72,72,84,84,84,30.11,30.11,1,1,6,0.00
2013-4-18,81,80,79,73,73,73,83,81,76,30.05,30.02,3,2,14,0.00
2013-4-19,86,81,78,77,74,71,87,79,69,30.06,29.96,6,3,19,0.03
2013-4-20,86,78,73,78,74,70,97,88,76,30.04,29.97,7,1,19,0.25
2013-4-21,84,80,78,75,73,72,85,80,73,30.10,29.99,5,1,10,0.01
2013-4-22,83,76,72,74,71,68,93,83,69,30.05,29.94,4,0,10,0.26
2013-4-23,82,78,71,70,67,63,92,69,62,30.10,30.01,4,1,13,0.00
2013-4-24,80,76,74,67,64,62,75,67,60,30.14,30.04,3,1,10,0.00
2013-4-25,77,75,74,64,63,63,70,67,65,30.20,30.13,2,1,8,0.00
2013-4-26,82,78,74,68,66,63,76,67,60,30.23,30.17,5,1,11,0.00
2013-4-27,82,78,75,68,66,63,77,67,57,30.22,30.09,5,2,13,0.00
2013-4-28,82,77,74,67,64,-100,73,66,53,30.13,30.01,5,2,15,0.00
2013-4-29,84,78,75,73,69,64,83,74,63,30.05,29.94,5,2,14,0.00
2013-4-30,78,76,73,73,71,69,90,82,76,29.99,29.95,4,0,12,0.01
2013-5-1,73,72,72,70,70,69,91,91,91,29.99,29.99,0,0,0,0.01
2013-5-2,74,71,69,71,69,67,97,95,88,29.91,29.81,7,3,20,3.84
2013-5-3,74,74,74,71,70,70,89,89,88,29.82,29.80,5,3,13,3.82
2013-5-4,71,70,70,69,68,68,95,95,94,29.74,29.70,0,0,1,1.51
2013-6-22,85,84,83,76,75,74,79,76,72,30.07,30.05,2,1,9,0.00
2013-6-23,84,82,82,75,74,74,78,77,74,30.14,30.11,2,0,8,0.00
2013-6-24,86,83,81,75,74,74,80,77,71,30.16,30.11,3,1,9,0.00
2013-6-25,86,86,86,77,77,77,75,75,75,30.11,30.11,0,0,10,0.00
2013-6-26,87,87,87,77,77,77,72,72,72,30.06,30.06,3,3,8,0.00
2013-6-27,83,81,79,76,75,74,86,83,79,30.03,29.96,2,0,7,0.23
2013-6-28,80,80,80,76,76,76,87,87,87,30.01,30.00,0,0,0,0.23
2013-6-29,90,89,85,79,77,74,71,70,67,29.88,29.82,6,4,18,0.24
2013-7-1,84,81,78,78,75,74,89,84,79,30.04,29.97,4,1,12,0.07
2013-7-2,88,84,77,80,77,74,92,82,75,30.07,30.02,4,1,12,0.14
2013-7-3,89,83,79,80,77,74,89,82,72,30.13,30.07,5,2,14,0.31
2013-7-4,82,82,82,76,76,76,83,82,81,30.13,30.10,3,1,10,0.31
2013-7-5,85,82,81,78,77,75,87,84,80,30.13,30.11,3,1,11,0.14
2013-7-6,89,86,82,78,77,76,82,73,67,30.11,30.08,3,2,14,0.03
2013-7-7,85,85,84,77,77,76,77,76,76,30.10,30.09,2,0,11,0.03
2013-7-8,82,82,82,75,75,75,80,80,80,30.12,30.12,0,0,6,0.00
2013-7-14,74,74,74,72,72,72,95,95,95,30.10,30.10,0,0,1,0.00
2013-7-15,86,78,74,79,75,73,98,92,76,30.09,30.06,0,0,6,1.96
2013-7-16,78,78,78,73,73,73,85,84,84,30.14,30.13,1,0,5,0.43
2013-7-17,79,79,78,74,73,73,84,83,82,30.14,30.11,1,0,6,0.26
2013-7-18,84,78,74,78,75,72,96,90,80,30.16,30.08,2,0,9,0.92
2013-7-19,84,80,74,79,76,73,96,89,83,30.14,30.07,1,0,8,0.59
2013-7-20,88,85,82,81,79,78,88,82,76,30.13,30.09,5,2,12,0.00
2013-7-21,75,75,75,73,73,73,93,93,93,30.15,30.15,0,0,0,0.94
2013-7-22,76,76,75,74,74,73,95,95,94,30.15,30.14,0,0,0,0.94
2013-7-23,85,85,85,78,78,78,80,80,80,30.09,30.09,1,1,6,0.00
2013-7-24,95,89,82,80,72,67,72,58,47,29.97,29.92,6,2,12,0.00
2013-7-25,92,84,79,77,75,71,84,73,59,30.01,29.96,6,1,11,0.00
2013-7-26,84,83,82,77,76,75,83,80,76,30.02,30.01,9,4,16,0.00
2013-7-27,80,80,80,76,76,76,89,89,88,30.00,29.98,1,0,6,0.04
2013-7-28,86,80,74,79,76,72,96,87,80,30.07,30.01,5,0,13,2.38
2013-7-29,86,83,80,78,77,76,88,83,77,30.14,30.04,1,0,7,0.00
2013-7-30,85,84,82,80,79,77,86,86,85,30.14,30.11,0,0,2,0.00
2013-7-31,91,87,83,80,78,77,85,75,66,30.13,30.09,3,1,9,0.00
2013-8-6,91,85,76,81,77,74,96,79,68,29.98,29.90,5,0,10,0.01
2013-8-7,80,79,78,77,75,74,90,88,85,29.95,29.92,0,0,1,0.01
2013-8-9,87,86,84,78,77,77,79,75,73,30.02,29.99,2,1,8,0.00
2013-8-12,91,85,81,79,76,73,83,75,65,30.12,30.03,1,0,10,0.00
2013-8-14,92,81,82,78,64,-100,83,69,64,30.03,29.94,4,1,10,0.00
2013-8-15,87,74,75,79,58,-100,97,79,73,30.07,29.97,4,0,13,2.87
2013-8-16,91,82,79,81,74,-100,92,81,70,30.06,29.99,2,0,11,0.03
2013-8-17,91,86,83,81,79,77,87,81,69,30.09,30.01,3,0,10,0.00
2013-8-18,90,84,82,80,76,-100,84,78,67,30.09,30.01,4,1,11,0.00
2013-8-19,91,81,82,80,63,-100,86,77,66,30.09,29.98,3,1,11,0.00
2013-8-20,91,84,81,79,74,-100,85,76,64,30.06,29.98,4,1,10,0.00
2013-8-21,89,85,83,81,79,78,87,82,76,30.07,30.01,4,1,10,0.11
2013-8-22,91,86,82,81,78,76,87,79,70,30.07,29.97,3,1,11,0.02
2013-8-25,88,82,77,78,76,73,90,81,70,30.15,30.03,2,0,8,0.00
2013-8-26,82,81,80,76,74,72,83,80,78,30.13,30.09,0,0,9,0.00
2013-8-27,83,80,76,78,75,71,95,84,70,30.06,29.99,1,0,5,0.59
2013-8-28,88,85,79,78,76,72,83,75,66,30.03,29.96,4,1,13,0.02
2013-8-29,91,83,75,79,76,70,93,81,68,30.03,29.93,2,0,8,0.02
2013-8-30,82,82,82,76,76,76,83,83,83,29.98,29.98,0,0,6,0.00
2013-8-31,82,82,81,75,75,74,81,80,78,29.96,29.94,3,1,8,0.00
2013-9-1,89,85,80,80,77,75,86,79,73,30.01,29.94,2,0,10,0.00
2013-9-2,92,82,76,80,76,74,95,85,66,30.03,29.95,2,0,6,0.00
2013-9-5,83,83,82,78,78,77,86,85,85,30.02,30.00,1,0,6,0.00
2013-9-6,91,87,82,82,78,76,89,77,66,30.04,29.94,1,0,7,0.14
2013-9-7,88,80,76,78,75,71,93,85,73,29.98,29.91,3,0,9,0.09
2013-9-9,82,77,74,77,73,71,91,89,84,30.01,29.94,0,0,6,1.55
2013-9-10,87,82,78,78,76,74,90,82,73,30.05,29.96,2,0,8,0.44
2013-9-11,83,83,82,77,76,75,82,81,80,30.03,30.02,2,0,6,0.00
2013-10-27,77,76,76,65,64,64,67,66,66,30.09,30.07,1,0,7,0.00
2013-10-28,85,79,75,69,66,63,72,64,49,30.15,30.05,0,0,6,0.00
2013-10-29,84,80,79,69,68,66,71,67,58,30.17,30.10,4,1,13,0.00
2013-10-30,84,80,77,71,68,66,73,68,60,30.19,30.10,4,1,12,0.00
2013-11-1,87,82,79,77,74,72,83,78,70,30.01,29.89,4,1,11,0.00
2013-11-3,81,78,76,67,64,62,70,63,57,30.03,29.95,2,1,11,0.00
2013-11-4,81,77,73,70,65,59,84,67,54,30.08,30.01,5,2,15,0.08
2013-11-5,82,79,77,72,70,66,81,74,67,30.10,30.02,6,4,20,0.06
2013-11-6,84,80,77,71,70,68,79,73,61,30.07,30.00,5,2,22,0.00
2013-11-7,85,77,71,74,71,68,94,81,66,30.01,29.93,0,0,4,0.00
2013-11-8,84,77,71,74,71,68,94,83,64,30.04,29.94,4,1,14,0.44
2013-11-9,78,76,73,73,70,-100,94,84,80,30.12,30.02,7,2,22,0.14
2013-11-10,83,79,76,74,72,69,86,78,72,30.12,30.05,4,1,11,0.01
2013-11-11,84,79,76,73,70,66,81,74,68,30.13,30.05,2,0,9,0.00
2013-11-12,84,79,75,71,69,67,82,73,62,30.09,29.97,1,0,6,0.00
2013-11-13,77,73,70,68,64,57,90,76,64,30.22,29.99,4,1,12,0.09
2013-11-14,77,73,70,63,60,56,69,64,58,30.24,30.15,6,3,18,0.01
2013-11-15,82,77,74,71,68,63,77,73,68,30.15,30.04,5,2,18,0.00
2013-11-16,80,77,76,74,69,-100,91,79,71,30.10,30.03,4,1,11,0.19
2013-11-17,84,80,78,75,72,70,87,78,69,30.08,30.01,3,1,9,0.01
2013-11-18,85,79,73,75,72,70,92,81,72,30.03,29.93,3,0,9,0.00
2013-11-19,84,76,73,75,72,70,95,88,72,29.93,29.86,2,0,6,2.97
2013-11-20,78,77,77,73,73,72,88,86,84,30.06,30.05,1,0,6,0.02
2013-11-21,78,76,75,73,73,72,93,90,83,30.09,30.06,4,2,12,1.38
2013-11-23,83,77,74,73,69,-100,86,78,72,30.09,29.98,4,0,10,0.01
2013-11-24,81,74,69,71,68,66,94,83,65,30.09,29.98,1,0,7,0.72
2013-11-25,75,74,74,70,69,68,84,84,83,30.09,30.07,6,4,16,0.00
2013-11-26,83,78,74,76,73,69,91,86,79,30.06,29.84,6,4,18,0.10
2013-11-27,64,61,58,56,54,52,80,78,76,30.11,30.06,1,0,7,1.18
2013-11-28,74,60,49,61,52,46,90,77,55,30.23,30.11,2,0,9,0.01
2013-12-14,82,77,75,74,70,-100,86,79,74,30.12,30.00,4,2,14,0.00
2013-12-15,83,77,72,76,72,69,94,85,74,30.06,29.93,7,3,21,0.00
2013-12-16,76,68,62,68,62,59,89,80,66,30.15,30.03,0,0,6,0.00
2013-12-17,77,67,59,65,60,57,95,78,59,30.18,30.11,1,0,6,0.00
2013-12-18,76,67,60,61,58,56,93,75,55,30.24,30.14,1,0,8,0.00
2013-12-19,74,66,63,65,59,57,82,80,74,30.23,30.18,0,0,5,0.00
2013-12-20,82,77,74,71,68,63,79,73,68,30.19,30.11,2,1,10,0.00
2013-12-21,83,78,77,74,70,-100,86,79,73,30.16,30.07,4,2,13,0.00
2013-12-22,84,80,77,75,73,71,87,81,72,30.16,30.09,5,2,16,0.00
2013-12-23,84,79,73,76,73,69,90,83,74,30.18,30.12,5,2,15,0.00
2013-12-24,83,73,69,74,69,64,97,86,68,30.17,30.09,4,1,9,0.00
2013-12-25,77,74,71,68,66,64,81,77,71,30.18,30.11,4,1,14,0.00
2014-1-2,87,80,74,73,69,66,89,70,52,30.02,29.87,9,4,16,0.00